createdAt,value
2023-05-22T00:01:58.706Z,-18597.69
2023-05-22T00:04:29.945Z,-18597.69
2023-05-22T00:06:57.270Z,-18597.69
2023-05-22T00:09:26.356Z,-18597.69
2023-05-22T00:11:53.320Z,-18597.69
2023-05-22T00:14:21.520Z,-18597.69
2023-05-22T00:16:48.717Z,-18597.69
2023-05-22T00:19:16.781Z,-18597.69
2023-05-22T00:21:44.568Z,-18597.69
2023-05-22T00:24:11.689Z,-18597.69
2023-05-22T00:26:38.751Z,-18597.69
2023-05-22T00:29:08.497Z,-18597.69
2023-05-22T00:31:35.691Z,-18597.69
2023-05-22T00:34:02.579Z,-18597.69
2023-05-22T00:36:30.585Z,-18597.69
2023-05-22T00:38:57.444Z,-18597.69
2023-05-22T00:41:24.494Z,-18597.69
2023-05-22T00:43:51.433Z,-18597.69
2023-05-22T00:46:21.788Z,-18597.69
2023-05-22T00:48:49.474Z,-18597.69
2023-05-22T00:51:16.563Z,-18597.69
2023-05-22T00:53:44.565Z,-18597.69
2023-05-22T00:56:12.540Z,-18597.69
2023-05-22T00:58:39.558Z,-18597.69
2023-05-22T01:01:07.872Z,-18597.69
2023-05-22T01:03:47.900Z,-18597.69
2023-05-22T01:06:18.492Z,-18597.69
2023-05-22T01:08:45.556Z,-18597.69
2023-05-22T01:11:28.596Z,-18597.69
2023-05-22T01:14:04.362Z,-18597.69
2023-05-22T01:16:50.851Z,-18597.69
2023-05-22T01:19:54.362Z,-18597.69
2023-05-22T01:22:38.822Z,-18597.69
2023-05-22T01:25:35.579Z,-18597.69
2023-05-22T01:28:07.717Z,-18597.69
2023-05-22T01:31:06.796Z,-18597.69
2023-05-22T01:33:41.980Z,-18597.69
2023-05-22T01:36:10.479Z,-18597.69
2023-05-22T01:38:37.668Z,-18597.69
2023-05-22T01:41:05.510Z,-18597.69
2023-05-22T01:43:32.524Z,-18597.69
2023-05-22T01:46:01.714Z,-18597.69
2023-05-22T01:48:29.570Z,-18597.69
2023-05-22T01:51:00.448Z,-18597.69
2023-05-22T01:53:43.737Z,-18597.69
2023-05-22T01:56:14.808Z,-18597.69
2023-05-22T01:58:48.514Z,-18597.69
2023-05-22T02:01:19.511Z,-18597.69
2023-05-22T02:03:51.827Z,-18597.69
2023-05-22T02:06:19.885Z,-18597.69
2023-05-22T02:08:47.653Z,-18597.69
2023-05-22T02:11:17.313Z,-18597.69
2023-05-22T02:13:44.312Z,-18597.69
2023-05-22T02:16:12.373Z,-18597.69
2023-05-22T02:18:41.991Z,-18597.69
2023-05-22T02:21:10.347Z,-18597.69
2023-05-22T02:23:38.005Z,-18597.69
2023-05-22T02:26:05.607Z,-18597.69
2023-05-22T02:28:32.586Z,-18597.69
2023-05-22T02:31:00.215Z,-18597.69
2023-05-22T02:33:27.459Z,-18597.69
2023-05-22T02:35:54.430Z,-18597.69
2023-05-22T02:38:21.182Z,-18597.69
2023-05-22T02:40:48.182Z,-18597.69
2023-05-22T02:43:15.001Z,-18597.69
2023-05-22T02:45:42.335Z,-18597.69
2023-05-22T02:48:09.288Z,-18597.69
2023-05-22T02:50:36.528Z,-18597.69
2023-05-22T02:53:04.033Z,-18597.69
2023-05-22T02:55:31.360Z,-18597.69
2023-05-22T02:57:58.178Z,-18597.69
2023-05-22T03:00:25.307Z,-18597.69
2023-05-22T03:02:52.212Z,-18597.69
2023-05-22T03:05:18.928Z,-18597.69
2023-05-22T03:07:48.374Z,-18597.69
2023-05-22T03:10:16.037Z,-18597.69
2023-05-22T03:12:43.250Z,-18597.69
2023-05-22T03:15:11.708Z,-18597.69
2023-05-22T03:17:40.242Z,-18597.69
2023-05-22T03:20:09.006Z,-18597.69
2023-05-22T03:22:36.246Z,-18597.69
2023-05-22T03:25:04.244Z,-18597.69
2023-05-22T03:27:31.332Z,-18597.69
2023-05-22T03:29:58.268Z,-18597.69
2023-05-22T03:32:25.250Z,-18597.69
2023-05-22T03:34:52.173Z,-18597.69
2023-05-22T03:37:19.033Z,-18597.69
2023-05-22T03:39:46.590Z,-18597.69
2023-05-22T03:42:22.125Z,-18597.69
2023-05-22T03:44:50.183Z,-18597.69
2023-05-22T03:47:18.413Z,-18597.69
2023-05-22T03:49:46.139Z,-18597.69
2023-05-22T03:52:12.960Z,-18597.69
2023-05-22T03:54:40.197Z,-18597.69
2023-05-22T03:57:07.257Z,-18597.69
2023-05-22T03:59:37.071Z,-18597.69
2023-05-22T04:02:04.475Z,-18597.69
2023-05-22T04:04:34.355Z,-18597.69
2023-05-22T04:07:02.876Z,-18597.69
2023-05-22T04:09:31.870Z,-18597.69
2023-05-22T04:11:59.134Z,-18597.69
2023-05-22T04:14:26.382Z,-18597.69
2023-05-22T04:16:55.392Z,-18597.69
2023-05-22T04:19:22.515Z,-18597.69
2023-05-22T04:21:49.474Z,-18597.69
2023-05-22T04:24:18.718Z,-18597.69
2023-05-22T04:26:45.489Z,-18597.69
2023-05-22T04:29:14.860Z,-18597.69
2023-05-22T04:31:42.490Z,-18597.69
2023-05-22T04:34:15.231Z,-18597.69
2023-05-22T04:36:45.463Z,-18597.69
2023-05-22T04:39:13.978Z,-18597.69
2023-05-22T04:41:41.305Z,-18597.69
2023-05-22T04:44:08.628Z,-18597.69
2023-05-22T04:46:36.221Z,-18597.69
2023-05-22T04:49:34.090Z,-18597.69
2023-05-22T04:52:04.890Z,-18597.69
2023-05-22T04:54:32.177Z,-18597.69
2023-05-22T04:56:58.987Z,-18597.69
2023-05-22T04:59:26.701Z,-18597.69
2023-05-22T05:01:53.610Z,-18597.69
2023-05-22T05:04:21.037Z,-18597.69
2023-05-22T05:06:47.898Z,-18597.69
2023-05-22T05:09:14.843Z,-18597.69
2023-05-22T05:11:41.689Z,-18597.69
2023-05-22T05:14:09.166Z,-18597.69
2023-05-22T05:16:36.080Z,-18597.69
2023-05-22T05:19:04.084Z,-18597.69
2023-05-22T05:21:31.775Z,-18597.69
2023-05-22T05:24:01.238Z,-18597.69
2023-05-22T05:26:28.413Z,-18597.69
2023-05-22T05:28:56.719Z,-18597.69
2023-05-22T05:31:25.275Z,-18597.69
2023-05-22T05:34:13.842Z,-18597.69
2023-05-22T05:36:52.949Z,-18597.69
2023-05-22T05:39:21.595Z,-18597.69
2023-05-22T05:41:49.424Z,-18597.69
2023-05-22T05:44:16.479Z,-18597.69
2023-05-22T05:46:43.628Z,-18597.69
2023-05-22T05:49:12.073Z,-18597.69
2023-05-22T05:51:40.740Z,-18597.69
2023-05-22T05:54:08.428Z,-18597.69
2023-05-22T05:56:35.837Z,-18597.69
2023-05-22T05:59:03.325Z,-18597.69
2023-05-22T06:01:40.036Z,-18597.69
2023-05-22T06:04:15.974Z,-18597.69
2023-05-22T06:06:45.679Z,-18597.69
2023-05-22T06:09:15.513Z,-18597.69
2023-05-22T06:12:12.893Z,-18597.69
2023-05-22T06:14:42.914Z,-18597.69
2023-05-22T06:17:10.223Z,-18597.69
2023-05-22T06:19:39.555Z,-18597.69
2023-05-22T06:22:07.194Z,-18597.69
2023-05-22T06:24:35.405Z,-18597.69
2023-05-22T06:27:08.535Z,-18597.69
2023-05-22T06:29:36.896Z,-18597.69
2023-05-22T06:32:04.474Z,-18597.69
2023-05-22T06:34:31.549Z,-18597.69
2023-05-22T06:37:01.885Z,-18597.69
2023-05-22T06:39:33.497Z,-18597.69
2023-05-22T06:42:19.033Z,-18597.69
2023-05-22T06:45:22.387Z,-18597.69
2023-05-22T06:48:27.616Z,-18597.69
2023-05-22T06:51:15.084Z,-18597.69
2023-05-22T06:53:42.206Z,-18597.69
2023-05-22T06:56:14.323Z,-18597.69
2023-05-22T06:58:53.054Z,-18597.69
2023-05-22T07:01:23.487Z,-18596.16
2023-05-22T07:04:02.179Z,6381.66
2023-05-22T07:06:50.410Z,50275.25
2023-05-22T07:09:20.367Z,71003.00
2023-05-22T07:11:48.399Z,67309.25
2023-05-22T07:14:18.191Z,63968.13
2023-05-22T07:16:45.988Z,105514.09
2023-05-22T07:19:18.083Z,105087.28
2023-05-22T07:21:46.130Z,110353.53
2023-05-22T07:24:16.267Z,106875.06
2023-05-22T07:26:46.565Z,117940.31
2023-05-22T07:29:14.380Z,117940.31
2023-05-22T07:31:42.529Z,117940.31
2023-05-22T07:34:10.330Z,117940.31
2023-05-22T07:36:37.959Z,117940.31
2023-05-22T07:39:05.654Z,117938.19
2023-05-22T07:41:36.737Z,117666.91
2023-05-22T07:44:04.387Z,117938.19
2023-05-22T07:46:37.927Z,117940.31
2023-05-22T07:49:19.665Z,117938.19
2023-05-22T07:51:47.653Z,117666.91
2023-05-22T07:54:16.374Z,117940.31
2023-05-22T07:56:46.176Z,117938.19
2023-05-22T07:59:16.079Z,117666.91
2023-05-22T08:01:43.308Z,117395.66
2023-05-22T08:04:10.585Z,116310.81
2023-05-22T08:06:37.728Z,115497.38
2023-05-22T08:09:05.097Z,115226.25
2023-05-22T08:11:33.122Z,114684.06
2023-05-22T08:14:00.117Z,110078.53
2023-05-22T08:16:27.272Z,108454.28
2023-05-22T08:19:06.328Z,110349.28
2023-05-22T08:21:36.210Z,107371.78
2023-05-22T08:24:02.979Z,107642.38
2023-05-22T08:26:31.415Z,107101.22
2023-05-22T08:28:58.941Z,107101.22
2023-05-22T08:31:25.870Z,99802.56
2023-05-22T08:33:52.672Z,102504.22
2023-05-22T08:36:21.625Z,99532.47
2023-05-22T08:38:48.825Z,107642.38
2023-05-22T08:41:16.027Z,98452.38
2023-05-22T08:43:42.914Z,100342.75
2023-05-22T08:46:10.102Z,97642.50
2023-05-22T08:48:38.410Z,97642.50
2023-05-22T08:51:08.054Z,100612.88
2023-05-22T08:53:36.666Z,77985.25
2023-05-22T08:56:05.602Z,75706.81
2023-05-22T08:58:37.382Z,72616.44
2023-05-22T09:01:06.598Z,90899.75
2023-05-22T09:03:34.600Z,49004.22
2023-05-22T09:06:02.128Z,48985.44
2023-05-22T09:08:29.320Z,48972.94
2023-05-22T09:10:56.798Z,48941.69
2023-05-22T09:13:28.730Z,49000.03
2023-05-22T09:16:00.777Z,48993.78
2023-05-22T09:18:30.157Z,48987.53
2023-05-22T09:21:02.686Z,48966.69
2023-05-22T09:23:30.153Z,48975.03
2023-05-22T09:25:58.162Z,48991.69
2023-05-22T09:28:25.554Z,48983.38
2023-05-22T09:30:53.698Z,49006.28
2023-05-22T09:33:22.225Z,49087.53
2023-05-22T09:35:53.587Z,49068.78
2023-05-22T09:38:21.941Z,49002.13
2023-05-22T09:40:53.413Z,49068.78
2023-05-22T09:43:23.668Z,48991.69
2023-05-22T09:45:56.975Z,48979.22
2023-05-22T09:48:23.996Z,48975.03
2023-05-22T09:50:58.996Z,49000.03
2023-05-22T09:53:28.782Z,48997.97
2023-05-22T09:55:58.202Z,48979.22
2023-05-22T09:58:27.413Z,48879.22
2023-05-22T10:00:58.500Z,48954.19
2023-05-22T10:03:27.431Z,48958.38
2023-05-22T10:05:58.792Z,48964.63
2023-05-22T10:08:28.774Z,48937.53
2023-05-22T10:10:56.202Z,48966.69
2023-05-22T10:13:24.462Z,48541.72
2023-05-22T10:15:51.545Z,47858.50
2023-05-22T10:18:18.929Z,47831.44
2023-05-22T10:20:49.036Z,48714.63
2023-05-22T10:23:17.313Z,48922.94
2023-05-22T10:25:45.733Z,48854.19
2023-05-22T10:28:20.184Z,48552.13
2023-05-22T10:30:56.486Z,48833.38
2023-05-22T10:34:07.595Z,46992.19
2023-05-22T10:36:49.730Z,47071.31
2023-05-22T10:39:57.078Z,48079.28
2023-05-22T10:42:23.835Z,48925.03
2023-05-22T10:44:50.765Z,48927.13
2023-05-22T10:47:17.853Z,48398.00
2023-05-22T10:49:45.644Z,48391.75
2023-05-22T10:52:14.962Z,48677.13
2023-05-22T10:54:46.101Z,48877.13
2023-05-22T10:57:17.287Z,46733.97
2023-05-22T10:59:47.897Z,44627.38
2023-05-22T11:02:21.642Z,46459.16
2023-05-22T11:04:49.513Z,47908.50
2023-05-22T11:07:16.332Z,45734.66
2023-05-22T11:09:48.615Z,48670.88
2023-05-22T11:12:31.048Z,48920.88
2023-05-22T11:15:09.298Z,48281.34
2023-05-22T11:17:46.395Z,48879.22
2023-05-22T11:20:22.479Z,47475.31
2023-05-22T11:22:56.923Z,48962.53
2023-05-22T11:25:25.229Z,48929.22
2023-05-22T11:27:54.021Z,48912.53
2023-05-22T11:30:24.791Z,48952.13
2023-05-22T11:32:52.102Z,48879.22
2023-05-22T11:35:20.148Z,48920.88
2023-05-22T11:37:48.121Z,48289.66
2023-05-22T11:40:17.069Z,48704.22
2023-05-22T11:42:44.572Z,48808.38
2023-05-22T11:45:11.909Z,48879.22
2023-05-22T11:47:39.186Z,48879.22
2023-05-22T11:50:09.208Z,48927.13
2023-05-22T11:52:38.240Z,48925.03
2023-05-22T11:55:05.858Z,48925.03
2023-05-22T11:57:32.973Z,48975.03
2023-05-22T11:59:59.803Z,48962.53
2023-05-22T12:02:27.385Z,48960.47
2023-05-22T12:04:58.087Z,48941.69
2023-05-22T12:07:26.716Z,48954.19
2023-05-22T12:09:56.775Z,48933.38
2023-05-22T12:12:23.734Z,48891.69
2023-05-22T12:14:50.985Z,48962.53
2023-05-22T12:17:18.238Z,48962.53
2023-05-22T12:19:47.201Z,48989.63
2023-05-22T12:22:14.377Z,48970.88
2023-05-22T12:24:47.883Z,48985.44
2023-05-22T12:27:15.508Z,48983.38
2023-05-22T12:29:43.147Z,48991.69
2023-05-22T12:32:12.317Z,48979.22
2023-05-22T12:34:47.142Z,48981.28
2023-05-22T12:37:21.329Z,48970.88
2023-05-22T12:39:56.046Z,48975.03
2023-05-22T12:42:22.877Z,48979.22
2023-05-22T12:44:52.284Z,48979.22
2023-05-22T12:47:19.752Z,48972.94
2023-05-22T12:49:46.415Z,48966.69
2023-05-22T12:52:13.540Z,48947.94
2023-05-22T12:54:40.632Z,48937.53
2023-05-22T12:57:07.428Z,48966.69
2023-05-22T12:59:34.939Z,48962.53
2023-05-22T13:02:03.276Z,48975.03
2023-05-22T13:04:30.143Z,48954.19
2023-05-22T13:06:57.089Z,48989.63
2023-05-22T13:09:24.041Z,49077.13
2023-05-22T13:11:50.889Z,49075.03
2023-05-22T13:14:17.985Z,49093.78
2023-05-22T13:16:44.929Z,49075.03
2023-05-22T13:19:11.811Z,49079.22
2023-05-22T13:21:39.727Z,49004.22
2023-05-22T13:24:06.818Z,49072.97
2023-05-22T13:26:33.575Z,49075.03
2023-05-22T13:29:00.455Z,49072.97
2023-05-22T13:31:27.473Z,49079.22
2023-05-22T13:33:54.775Z,49083.38
2023-05-22T13:36:21.418Z,49087.53
2023-05-22T13:38:48.223Z,49079.22
2023-05-22T13:43:42.594Z,49091.72
2023-05-22T13:46:09.326Z,49102.13
2023-05-22T13:48:36.290Z,49104.22
2023-05-22T13:51:03.312Z,49097.97
2023-05-22T13:53:30.070Z,49100.03
2023-05-22T13:55:57.241Z,49110.47
2023-05-22T13:58:23.969Z,49100.03
2023-05-22T14:00:51.432Z,49106.28
2023-05-22T14:03:18.512Z,49104.22
2023-05-22T14:05:45.666Z,49112.53
2023-05-22T14:08:13.559Z,49110.47
2023-05-22T14:10:40.584Z,49108.38
2023-05-22T14:13:08.742Z,49116.72
2023-05-22T14:15:36.024Z,49120.88
2023-05-22T14:18:02.882Z,49116.72
2023-05-22T14:20:29.624Z,49125.03
2023-05-22T14:22:58.106Z,49125.03
2023-05-22T14:25:26.416Z,49120.88
2023-05-22T14:27:53.291Z,49125.03
2023-05-22T14:30:20.199Z,49125.03
2023-05-22T14:32:47.329Z,49129.22
2023-05-22T14:35:14.238Z,49135.47
2023-05-22T14:37:41.097Z,49131.28
2023-05-22T14:40:08.939Z,49145.88
2023-05-22T14:42:36.745Z,49133.38
2023-05-22T14:45:05.739Z,49133.38
2023-05-22T14:47:32.358Z,49133.38
2023-05-22T14:50:10.282Z,49137.53
2023-05-22T14:52:46.044Z,49133.38
2023-05-22T14:55:14.054Z,49133.38
2023-05-22T14:57:41.123Z,49129.22
2023-05-22T15:00:10.042Z,49133.38
2023-05-22T15:02:37.376Z,49129.22
2023-05-22T15:05:04.710Z,7915.19
2023-05-22T15:07:43.122Z,67606.47
2023-05-22T15:10:11.308Z,73371.00
2023-05-22T15:12:38.199Z,73039.81
2023-05-22T15:15:05.349Z,70793.53
2023-05-22T15:17:32.263Z,72846.97
2023-05-22T15:19:58.956Z,73509.34
2023-05-22T15:22:25.753Z,74490.50
2023-05-22T15:25:06.540Z,72970.66
2023-05-22T15:27:35.462Z,67397.16
2023-05-22T15:30:03.784Z,68395.66
2023-05-22T15:32:32.515Z,65990.88
2023-05-22T15:34:59.390Z,66244.06
2023-05-22T15:37:26.233Z,74121.50
2023-05-22T15:39:53.399Z,66806.97
2023-05-22T15:42:20.352Z,68259.59
2023-05-22T15:44:47.194Z,62615.31
2023-05-22T15:47:15.048Z,62673.84
2023-05-22T15:49:42.013Z,52972.94
2023-05-22T15:52:09.759Z,42825.59
2023-05-22T15:54:36.480Z,44656.53
2023-05-22T15:57:03.370Z,30966.06
2023-05-22T15:59:30.138Z,35439.81
2023-05-22T16:01:56.947Z,52489.13
2023-05-22T16:04:23.853Z,64900.94
2023-05-22T16:06:50.607Z,70420.66
2023-05-22T16:09:19.414Z,54971.31
2023-05-22T16:11:48.428Z,58868.75
2023-05-22T16:14:15.308Z,65551.50
2023-05-22T16:16:42.164Z,68554.78
2023-05-22T16:19:08.944Z,69161.97
2023-05-22T16:21:38.427Z,73266.19
2023-05-22T16:24:07.049Z,56883.03
2023-05-22T16:26:34.114Z,57242.09
2023-05-22T16:29:00.861Z,41026.72
2023-05-22T16:31:27.978Z,30957.78
2023-05-22T16:33:55.035Z,25989.94
2023-05-22T16:36:21.769Z,27118.91
2023-05-22T16:38:48.567Z,31886.97
2023-05-22T16:41:15.320Z,30022.59
2023-05-22T16:43:42.139Z,23035.47
2023-05-22T16:46:09.223Z,25039.38
2023-05-22T16:48:36.142Z,20916.72
2023-05-22T16:51:03.153Z,31129.91
2023-05-22T16:53:30.064Z,22141.47
2023-05-22T16:55:57.124Z,28130.09
2023-05-22T16:58:23.941Z,27752.94
2023-05-22T17:00:50.995Z,20122.50
2023-05-22T17:03:18.048Z,27711.50
2023-05-22T17:05:44.975Z,30277.63
2023-05-22T17:08:11.715Z,32492.72
2023-05-22T17:10:38.762Z,37323.38
2023-05-22T17:13:05.932Z,43050.25
2023-05-22T17:15:32.726Z,27243.22
2023-05-22T17:17:59.938Z,10604.44
2023-05-22T17:20:26.854Z,8492.47
2023-05-22T17:22:53.752Z,5063.00
2023-05-22T17:25:21.904Z,2427.00
2023-05-22T17:27:48.939Z,4799.31
2023-05-22T17:30:15.905Z,5063.00
2023-05-22T17:32:42.833Z,10076.31
2023-05-22T17:35:09.653Z,6117.88
2023-05-22T17:37:36.581Z,10076.31
2023-05-22T17:40:04.161Z,9020.34
2023-05-22T17:42:30.950Z,8228.56
2023-05-22T17:44:57.594Z,2690.50
2023-05-22T17:47:24.380Z,8228.56
2023-05-22T17:49:52.304Z,11925.00
2023-05-22T17:52:19.233Z,16418.25
2023-05-22T17:54:47.066Z,18534.53
2023-05-22T17:57:13.969Z,23366.63
2023-05-22T17:59:40.699Z,24368.53
2023-05-22T18:02:09.368Z,32463.66
2023-05-22T18:04:37.056Z,34150.72
2023-05-22T18:07:04.148Z,29025.44
2023-05-22T18:09:30.894Z,16153.81
2023-05-22T18:11:59.280Z,12717.53
2023-05-22T18:14:26.130Z,-10200.72
2023-05-22T18:16:54.122Z,-18596.16
2023-05-22T18:19:21.054Z,-18597.69
2023-05-22T18:21:48.142Z,-18597.69
2023-05-22T18:24:15.129Z,-18597.69
2023-05-22T18:26:41.930Z,-18597.69
2023-05-22T18:29:08.723Z,-18597.69
2023-05-22T18:31:35.658Z,-18597.69
2023-05-22T18:34:02.460Z,-18597.69
2023-05-22T18:36:29.167Z,-18597.69
2023-05-22T18:38:55.994Z,-18597.69
2023-05-22T18:41:22.737Z,-18597.69
2023-05-22T18:43:49.573Z,-18597.69
2023-05-22T18:46:16.454Z,-18597.69
2023-05-22T18:48:43.541Z,-18597.69
2023-05-22T18:51:10.191Z,-18597.69
2023-05-22T18:53:37.021Z,-18597.69
2023-05-22T18:56:03.753Z,-18597.69
2023-05-22T18:58:30.729Z,-18597.69
2023-05-22T19:00:58.844Z,-18597.69
2023-05-22T19:03:25.660Z,-18597.69
2023-05-22T19:05:52.475Z,-18597.69
2023-05-22T19:08:19.289Z,-18597.69
2023-05-22T19:10:46.362Z,-18597.69
2023-05-22T19:13:13.209Z,-18597.69
2023-05-22T19:15:40.097Z,-18597.69
2023-05-22T19:18:06.886Z,-18597.69
2023-05-22T19:20:34.253Z,-18597.69
2023-05-22T19:23:01.237Z,-18597.69
2023-05-22T19:25:28.245Z,-18597.69
2023-05-22T19:27:57.171Z,-18597.69
2023-05-22T19:30:24.120Z,-18597.69
2023-05-22T19:32:50.995Z,-18597.69
2023-05-22T19:35:17.793Z,-18597.69
2023-05-22T19:37:44.663Z,-18597.69
2023-05-22T19:40:11.591Z,-18597.69
2023-05-22T19:42:41.777Z,-18597.69
2023-05-22T19:45:09.162Z,-18597.69
2023-05-22T19:47:36.239Z,-18597.69
2023-05-22T19:50:03.934Z,-18597.69
2023-05-22T19:52:31.937Z,-18597.69
2023-05-22T19:54:58.679Z,-18597.69
2023-05-22T19:57:25.492Z,-18597.69
2023-05-22T19:59:52.576Z,-18597.69
2023-05-22T20:02:19.575Z,-18597.69
2023-05-22T20:04:48.601Z,-18597.69
2023-05-22T20:07:15.841Z,-18597.69
2023-05-22T20:09:42.809Z,-18597.69
2023-05-22T20:12:15.518Z,-18597.69
2023-05-22T20:14:42.251Z,-18597.69
2023-05-22T20:17:09.174Z,-18597.69
2023-05-22T20:19:35.927Z,-18597.69
2023-05-22T20:22:05.216Z,-18597.69
2023-05-22T20:24:32.196Z,-18597.69
2023-05-22T20:26:59.010Z,-18597.69
2023-05-22T20:29:26.367Z,-18597.69
2023-05-22T20:31:55.033Z,-18597.69
2023-05-22T20:34:23.619Z,-18597.69
2023-05-22T20:36:50.253Z,-18597.69
2023-05-22T20:39:18.418Z,-18597.69
2023-05-22T20:41:50.069Z,-18597.69
2023-05-22T20:44:23.767Z,-18597.69
2023-05-22T20:46:54.382Z,-18597.69
2023-05-22T20:49:21.375Z,-18597.69
2023-05-22T20:51:51.961Z,-18597.69
2023-05-22T20:54:18.914Z,-18597.69
2023-05-22T20:56:46.178Z,-18597.69
2023-05-22T20:59:12.961Z,-18597.69
2023-05-22T21:01:39.969Z,-18597.69
2023-05-22T21:04:06.931Z,-18597.69
2023-05-22T21:06:33.922Z,-18597.69
2023-05-22T21:09:02.010Z,-18597.69
2023-05-22T21:11:30.866Z,-18597.69
2023-05-22T21:13:57.867Z,-18597.69
2023-05-22T21:16:24.885Z,-18597.69
2023-05-22T21:18:53.946Z,-18597.69
2023-05-22T21:21:20.659Z,-18597.69
2023-05-22T21:23:49.190Z,-18597.69
2023-05-22T21:26:16.905Z,-18597.69
2023-05-22T21:28:46.983Z,-18597.69
2023-05-22T21:31:13.927Z,-18597.69
2023-05-22T21:33:40.818Z,-18597.69
2023-05-22T21:36:07.552Z,-18597.69
2023-05-22T21:38:35.482Z,-18597.69
2023-05-22T21:41:02.423Z,-18597.69
2023-05-22T21:43:30.727Z,-18597.69
2023-05-22T21:45:57.633Z,-18597.69
2023-05-22T21:48:24.478Z,-18597.69
2023-05-22T21:50:53.459Z,-18597.69
2023-05-22T21:53:21.111Z,-18597.69
2023-05-22T21:55:47.855Z,-18597.69
2023-05-22T21:58:14.513Z,-18597.69
2023-05-22T22:00:41.553Z,-18597.69
2023-05-22T22:03:09.785Z,-18597.69
2023-05-22T22:05:37.018Z,-18597.69
2023-05-22T22:08:05.215Z,-18597.69
2023-05-22T22:10:32.012Z,-18597.69
2023-05-22T22:12:58.923Z,-18597.69
2023-05-22T22:15:26.881Z,-18597.69
2023-05-22T22:17:59.625Z,-18597.69
2023-05-22T22:20:42.632Z,-18597.69
2023-05-22T22:23:11.221Z,-18597.69
2023-05-22T22:25:39.497Z,-18597.69
2023-05-22T22:28:07.497Z,-18597.69
2023-05-22T22:30:35.444Z,-18597.69
2023-05-22T22:33:04.577Z,-18597.69
2023-05-22T22:35:31.661Z,-18597.69
2023-05-22T22:37:58.828Z,-18597.69
2023-05-22T22:40:26.808Z,-18597.69
2023-05-22T22:42:53.918Z,-18597.69
2023-05-22T22:45:20.937Z,-18597.69
2023-05-22T22:47:48.371Z,-18597.69
2023-05-22T22:50:15.530Z,-18597.69
2023-05-22T22:52:45.724Z,-18597.69
2023-05-22T22:55:13.125Z,-18597.69
2023-05-22T22:57:43.555Z,-18597.69
2023-05-22T23:00:13.425Z,-18597.69
2023-05-22T23:02:40.508Z,-18597.69
2023-05-22T23:05:08.161Z,-18597.69
2023-05-22T23:07:37.095Z,-18597.69
2023-05-22T23:10:05.654Z,-18597.69
2023-05-22T23:12:35.377Z,-18597.69
2023-05-22T23:15:02.963Z,-18597.69
2023-05-22T23:17:30.369Z,-18597.69
2023-05-22T23:19:57.557Z,-18597.69
2023-05-22T23:22:24.461Z,-18597.69
2023-05-22T23:24:51.439Z,-18597.69
2023-05-22T23:27:18.490Z,-18597.69
2023-05-22T23:29:45.295Z,-18597.69
2023-05-22T23:32:14.594Z,-18597.69
2023-05-22T23:34:42.552Z,-18597.69
2023-05-22T23:37:10.538Z,-18597.69
2023-05-22T23:39:37.278Z,-18597.69
2023-05-22T23:42:04.714Z,-18597.69
2023-05-22T23:44:31.877Z,-18597.69
2023-05-22T23:47:00.214Z,-18597.69
2023-05-22T23:49:27.239Z,-18597.69
2023-05-22T23:51:56.153Z,-18597.69
2023-05-22T23:55:16.752Z,-18597.69
2023-05-22T23:57:43.541Z,-18597.69
